Weather History for Perryton, TX

Change the Weather History Date:

Wednesday, February 27, 2013

  Actual Average Record
Temperature  
Mean Temperature 30 °F -  
Max Temperature 39 °F 57 °F 78 °F (1986)
Min Temperature 21 °F 27 °F 12 °F (1993)
Degree Days  
Heating Degree Days 35    
Moisture  
Dew Point 26 °F    
Average Humidity 83    
Maximum Humidity 93    
Minimum Humidity 70    
Precipitation  
Precipitation 0.00 in - - ()
Sea Level Pressure  
Sea Level Pressure 30.13 in    
Wind  
Wind Speed 9 mph (NNW)    
Max Wind Speed 23 mph    
Max Gust Speed -    
Visibility 10 miles    
Events      
Averages and records for this station are not official NWS values.
T = Trace of Precipitation, MM = Missing Value Source: NWS Daily Summary

Daily Weather History Graph

Daily Weather History Graph

Search for Another Location

Airport:

Trip Planner

Search our weather history database for the weather conditions in past years. The results will help you decide how hot, cold, wet, or windy it might be!

Date:

Astronomy

Feb. 27, 2013 Rise Set
Actual Time 7:15 AM CST 6:36 PM CST
Civil Twilight 6:49 AM CST 7:01 PM CST
Nautical Twilight 6:19 AM CST 7:31 PM CST
Astronomical Twilight 5:50 AM CST 8:01 PM CST
Moon 8:53 PM CST (2/27) 7:56 AM CST (2/27)
Length of Visible Light 12h 12m
Length of Day
11h 20m
Waning Gibbous, 96% of the Moon is Illuminated
Feb 27
Waning Gibbous
Mar 4
Last Quarter
Mar 11
New
Mar 19
First Quarter
Mar 27
Full

Hourly Weather History & Observations

Time (CST) Temp. Windchill Dew Point Humidity Pressure Visibility Wind Dir Wind Speed Gust Speed Precip Events Conditions
12:15 AM 30.2 °F - 26.6 °F 86% 29.94 in 10.0 mi Calm Calm - N/A   Overcast
12:35 AM 30.2 °F - 26.6 °F 86% 29.94 in 10.0 mi Calm Calm - N/A   Overcast
12:55 AM 30.2 °F - 26.6 °F 86% 29.95 in 10.0 mi Calm Calm - N/A   Overcast
1:35 AM 30.2 °F 25.4 °F 28.4 °F 93% 29.97 in 10.0 mi West 4.6 mph - N/A   Overcast
1:55 AM 30.2 °F 22.6 °F 28.4 °F 93% 29.98 in 10.0 mi NW 8.1 mph - N/A   Overcast
2:15 AM 30.2 °F 22.6 °F 28.4 °F 93% 29.99 in 10.0 mi NW 8.1 mph - N/A   Overcast
2:35 AM 30.2 °F 21.9 °F 28.4 °F 93% 30.00 in 10.0 mi NNW 9.2 mph - N/A   Overcast
2:55 AM 30.2 °F 21.3 °F 26.6 °F 86% 30.00 in 10.0 mi NW 10.4 mph - N/A   Mostly Cloudy
3:15 AM 28.4 °F 19.1 °F 23.0 °F 80% 30.00 in 10.0 mi NW 10.4 mph - N/A   Scattered Clouds
3:35 AM 24.8 °F 16.1 °F 21.2 °F 86% 30.00 in 10.0 mi NNW 8.1 mph - N/A   Clear
3:55 AM 23.0 °F 13.1 °F 21.2 °F 93% 30.01 in 10.0 mi NW 9.2 mph - N/A   Clear
4:15 AM 23.0 °F 13.1 °F 19.4 °F 86% 30.01 in 10.0 mi NW 9.2 mph - N/A   Clear
4:35 AM 21.2 °F 10.1 °F 17.6 °F 86% 30.01 in 10.0 mi NW 10.4 mph - N/A   Clear
4:55 AM 21.2 °F 7.3 °F 19.4 °F 93% 30.02 in 10.0 mi NW 16.1 mph - N/A   Clear
5:15 AM 23.0 °F 10.1 °F 19.4 °F 86% 30.03 in 10.0 mi NW 15.0 mph - N/A   Clear
5:35 AM 23.0 °F 10.1 °F 19.4 °F 86% 30.03 in 10.0 mi NW 15.0 mph - N/A   Clear
5:55 AM 23.0 °F 11.1 °F 19.4 °F 86% 30.04 in 10.0 mi NW 12.7 mph - N/A   Clear
6:15 AM 23.0 °F 11.1 °F 19.4 °F 86% 30.05 in 10.0 mi NW 12.7 mph - N/A   Clear
6:35 AM 23.0 °F 10.6 °F 19.4 °F 86% 30.06 in 10.0 mi NW 13.8 mph - N/A   Clear
6:55 AM 23.0 °F 9.6 °F 19.4 °F 86% 30.07 in 10.0 mi NW 16.1 mph - N/A   Clear
7:15 AM 24.8 °F 11.5 °F 21.2 °F 86% 30.08 in 10.0 mi NW 17.3 mph - N/A   Clear
7:35 AM 24.8 °F 11.9 °F 21.2 °F 86% 30.09 in 10.0 mi NW 16.1 mph - N/A   Clear
7:55 AM 26.6 °F 13.8 °F 23.0 °F 86% 30.10 in 10.0 mi NW 17.3 mph - N/A   Clear
8:15 AM 28.4 °F 16.6 °F 23.0 °F 80% 30.11 in 10.0 mi NW 16.1 mph - N/A   Clear
8:35 AM 28.4 °F 17.5 °F 24.8 °F 86% 30.12 in 10.0 mi NW 13.8 mph - N/A   Clear
8:55 AM 30.2 °F 19.3 °F 26.6 °F 86% 30.14 in 10.0 mi NW 15.0 mph - N/A   Clear
9:15 AM 30.2 °F 19.3 °F 26.6 °F 86% 30.15 in 10.0 mi NW 15.0 mph - N/A   Clear
9:35 AM 32.0 °F 21.6 °F 28.4 °F 87% 30.16 in 10.0 mi NW 15.0 mph - N/A   Clear
9:55 AM 33.8 °F 23.5 °F 28.4 °F 81% 30.17 in 10.0 mi NW 16.1 mph - N/A   Clear
10:15 AM 33.8 °F 22.5 °F 30.2 °F 87% 30.17 in 10.0 mi NW 19.6 mph - N/A   Clear
10:35 AM 35.6 °F 24.5 °F 30.2 °F 81% 30.17 in 10.0 mi NNW 20.7 mph - N/A   Clear
10:55 AM 35.6 °F 24.8 °F 30.2 °F 81% 30.18 in 10.0 mi NNW 19.6 mph - N/A   Clear
11:15 AM 35.6 °F 25.9 °F 30.2 °F 81% 30.19 in 10.0 mi NNW 16.1 mph - N/A   Scattered Clouds
11:35 AM 37.4 °F 26.6 °F 30.2 °F 75% 30.19 in 10.0 mi NNW 21.9 mph - N/A   Mostly Cloudy
11:55 AM 37.4 °F 27.5 °F 30.2 °F 75% 30.20 in 10.0 mi NNW 18.4 mph - N/A   Scattered Clouds
12:15 PM 37.4 °F 26.4 °F 30.2 °F 75% 30.20 in 10.0 mi NNW 23.0 mph - N/A   Scattered Clouds
12:55 PM 37.4 °F 28.9 °F 30.2 °F 75% 30.19 in 10.0 mi NNW 13.8 mph - N/A   Mostly Cloudy
1:15 PM 39.2 °F 31.2 °F 30.2 °F 70% 30.19 in 10.0 mi NNW 13.8 mph - N/A   Scattered Clouds
1:35 PM 39.2 °F 30.8 °F 30.2 °F 70% 30.18 in 10.0 mi NNW 15.0 mph - N/A   Scattered Clouds
1:55 PM 39.2 °F 31.2 °F 32.0 °F 75% 30.18 in 10.0 mi North 13.8 mph - N/A   Scattered Clouds
2:15 PM 39.2 °F 30.5 °F 30.2 °F 70% 30.17 in 10.0 mi North 16.1 mph - N/A   Clear
2:35 PM 39.2 °F 31.2 °F 30.2 °F 70% 30.17 in 10.0 mi North 13.8 mph - N/A   Clear
2:55 PM 39.2 °F 32.0 °F 32.0 °F 75% 30.18 in 10.0 mi North 11.5 mph - N/A   Clear
3:15 PM 39.2 °F 33.0 °F 30.2 °F 70% 30.18 in 10.0 mi North 9.2 mph - N/A   Clear
3:35 PM 39.2 °F 32.5 °F 30.2 °F 70% 30.18 in 10.0 mi North 10.4 mph - N/A   Clear
4:15 PM 39.2 °F 33.0 °F 30.2 °F 70% 30.18 in 10.0 mi North 9.2 mph - N/A   Clear
4:35 PM 39.2 °F 33.6 °F 30.2 °F 70% 30.18 in 10.0 mi North 8.1 mph - N/A   Clear
4:55 PM 39.2 °F 33.0 °F 30.2 °F 70% 30.17 in 10.0 mi North 9.2 mph - N/A   Clear
5:15 PM 39.2 °F 35.0 °F 30.2 °F 70% 30.17 in 10.0 mi North 5.8 mph - N/A   Clear
5:35 PM 39.2 °F 35.0 °F 30.2 °F 70% 30.18 in 10.0 mi NNE 5.8 mph - N/A   Clear
5:55 PM 37.4 °F 33.8 °F 30.2 °F 75% 30.18 in 10.0 mi NNE 4.6 mph - N/A   Clear
6:15 PM 37.4 °F 32.8 °F 30.2 °F 75% 30.19 in 10.0 mi North 5.8 mph - N/A   Clear
6:35 PM 33.8 °F 27.7 °F 28.4 °F 81% 30.19 in 10.0 mi North 6.9 mph - N/A   Clear
6:55 PM 32.0 °F 25.6 °F 28.4 °F 87% 30.19 in 10.0 mi North 6.9 mph - N/A   Clear
7:15 PM 32.0 °F 28.7 °F 28.4 °F 87% 30.20 in 10.0 mi North 3.5 mph - N/A   Clear
7:35 PM 32.0 °F - 28.4 °F 87% 30.21 in 10.0 mi Calm Calm - N/A   Clear
7:55 PM 32.0 °F 28.7 °F 28.4 °F 87% 30.21 in 10.0 mi NW 3.5 mph - N/A   Clear
8:15 PM 32.0 °F - 28.4 °F 87% 30.22 in 10.0 mi Calm Calm - N/A   Clear
8:35 PM 32.0 °F - 28.4 °F 87% 30.22 in 10.0 mi Calm Calm - N/A   Clear
8:55 PM 32.0 °F - 28.4 °F 87% 30.22 in 10.0 mi Calm Calm - N/A   Clear
9:15 PM 30.2 °F - 26.6 °F 86% 30.22 in 10.0 mi Calm Calm - N/A   Clear
9:35 PM 30.2 °F - 26.6 °F 86% 30.22 in 10.0 mi Calm Calm - N/A   Clear
9:55 PM 28.4 °F 24.6 °F 26.6 °F 93% 30.23 in 10.0 mi NW 3.5 mph - N/A   Clear
10:15 PM 26.6 °F 22.6 °F 23.0 °F 86% 30.23 in 10.0 mi WNW 3.5 mph - N/A   Clear
10:35 PM 26.6 °F 21.2 °F 24.8 °F 93% 30.23 in 10.0 mi WNW 4.6 mph - N/A   Clear
10:55 PM 26.6 °F 19.1 °F 24.8 °F 93% 30.23 in 10.0 mi NW 6.9 mph - N/A   Clear
11:15 PM 26.6 °F 21.2 °F 23.0 °F 86% 30.23 in 10.0 mi WNW 4.6 mph - N/A   Clear
11:35 PM 24.8 °F 16.9 °F 23.0 °F 93% 30.23 in 10.0 mi West 6.9 mph - N/A   Clear
11:55 PM 26.6 °F 18.2 °F 23.0 °F 86% 30.23 in 10.0 mi WNW 8.1 mph - N/A   Clear